createdAt,value
2023-01-29T00:00:10.365Z,-0.60
2023-01-29T00:02:37.618Z,-0.50
2023-01-29T00:05:25.555Z,-0.50
2023-01-29T00:07:53.871Z,-0.50
2023-01-29T00:10:20.804Z,-0.50
2023-01-29T00:12:47.743Z,-0.50
2023-01-29T00:15:14.754Z,-0.50
2023-01-29T00:17:41.699Z,-0.50
2023-01-29T00:20:10.369Z,-0.50
2023-01-29T00:22:37.360Z,-0.40
2023-01-29T00:25:04.491Z,-0.40
2023-01-29T00:27:31.416Z,-0.50
2023-01-29T00:30:19.995Z,-0.40
2023-01-29T00:32:47.265Z,-0.40
2023-01-29T00:35:14.202Z,-0.40
2023-01-29T00:37:41.169Z,-0.40
2023-01-29T00:40:09.312Z,-0.40
2023-01-29T00:42:54.839Z,-0.40
2023-01-29T00:45:21.814Z,-0.40
2023-01-29T00:47:48.759Z,-0.40
2023-01-29T00:50:15.998Z,-0.40
2023-01-29T00:52:43.142Z,-0.40
2023-01-29T00:55:11.014Z,-0.40
2023-01-29T00:57:38.395Z,-0.40
2023-01-29T01:00:08.982Z,-0.40
2023-01-29T01:02:54.364Z,-0.40
2023-01-29T01:05:21.652Z,-0.40
2023-01-29T01:07:54.101Z,-0.50
2023-01-29T01:10:27.161Z,-0.50
2023-01-29T01:13:02.790Z,-0.40
2023-01-29T01:15:32.293Z,-0.40
2023-01-29T01:18:00.981Z,-0.40
2023-01-29T01:20:30.256Z,-0.40
2023-01-29T01:22:57.582Z,-0.40
2023-01-29T01:25:26.848Z,-0.40
2023-01-29T01:27:55.492Z,-0.40
2023-01-29T01:30:23.839Z,-0.40
2023-01-29T01:32:51.985Z,-0.40
2023-01-29T01:35:19.278Z,-0.40
2023-01-29T01:37:46.342Z,-0.30
2023-01-29T01:40:19.629Z,-0.30
2023-01-29T01:42:51.679Z,-0.30
2023-01-29T01:45:32.233Z,-0.30
2023-01-29T01:48:24.568Z,-0.30
2023-01-29T01:50:56.666Z,-0.30
2023-01-29T01:53:30.767Z,-0.30
2023-01-29T01:56:03.827Z,-0.30
2023-01-29T01:58:36.226Z,-0.30
2023-01-29T02:01:06.849Z,-0.30
2023-01-29T02:03:57.648Z,-0.30
2023-01-29T02:06:43.249Z,-0.30
2023-01-29T02:09:32.511Z,-0.30
2023-01-29T02:11:59.437Z,-0.30
2023-01-29T02:14:27.281Z,-0.30
2023-01-29T02:16:54.409Z,-0.30
2023-01-29T02:19:40.128Z,-0.20
2023-01-29T02:22:46.033Z,-0.20
2023-01-29T02:25:57.815Z,-0.30
2023-01-29T02:29:20.069Z,-0.30
2023-01-29T02:32:02.601Z,-0.30
2023-01-29T02:35:13.027Z,-0.30
2023-01-29T02:37:50.344Z,-0.20
2023-01-29T02:40:28.854Z,-0.20
2023-01-29T02:43:14.080Z,-0.20
2023-01-29T02:45:53.045Z,-0.10
2023-01-29T02:48:23.992Z,-0.10
2023-01-29T02:51:06.072Z,-0.10
2023-01-29T02:54:13.862Z,-0.10
2023-01-29T02:56:51.374Z,-0.10
2023-01-29T02:59:27.394Z,0.00
2023-01-29T03:02:03.395Z,0.00
2023-01-29T03:04:36.634Z,0.00
2023-01-29T03:07:10.658Z,0.00
2023-01-29T03:09:44.934Z,0.00
2023-01-29T03:12:28.565Z,0.00
2023-01-29T03:15:12.986Z,0.00
2023-01-29T03:18:18.919Z,0.10
2023-01-29T03:20:53.994Z,0.10
2023-01-29T03:23:48.690Z,0.10
2023-01-29T03:26:36.616Z,0.10
2023-01-29T03:29:23.533Z,0.10
2023-01-29T03:32:05.713Z,0.10
2023-01-29T03:34:43.750Z,0.10
2023-01-29T03:37:42.931Z,0.10
2023-01-29T03:40:10.841Z,0.10
2023-01-29T03:43:00.001Z,0.20
2023-01-29T03:46:18.792Z,0.20
2023-01-29T03:49:15.676Z,0.20
2023-01-29T03:52:02.839Z,0.20
2023-01-29T03:54:39.545Z,0.30
2023-01-29T03:57:26.886Z,0.30
2023-01-29T04:00:18.908Z,0.30
2023-01-29T04:03:11.939Z,0.30
2023-01-29T04:05:45.090Z,0.30
2023-01-29T04:08:16.600Z,0.30
2023-01-29T04:10:47.566Z,0.30
2023-01-29T04:13:17.924Z,0.30
2023-01-29T04:15:50.836Z,0.40
2023-01-29T04:18:17.772Z,0.40
2023-01-29T04:20:44.983Z,0.40
2023-01-29T04:23:26.214Z,0.40
2023-01-29T04:26:08.119Z,0.40
2023-01-29T04:28:56.743Z,0.50
2023-01-29T04:31:32.459Z,0.50
2023-01-29T04:34:10.044Z,0.50
2023-01-29T04:37:07.775Z,0.50
2023-01-29T04:39:46.865Z,0.50
2023-01-29T04:42:25.381Z,0.40
2023-01-29T04:45:10.819Z,0.40
2023-01-29T04:47:58.566Z,0.50
2023-01-29T04:50:34.170Z,0.50
2023-01-29T04:53:24.709Z,0.50
2023-01-29T04:56:20.314Z,0.50
2023-01-29T04:58:55.804Z,0.50
2023-01-29T05:01:28.854Z,0.50
2023-01-29T05:03:58.203Z,0.50
2023-01-29T05:06:26.311Z,0.50
2023-01-29T05:08:55.344Z,0.60
2023-01-29T05:11:24.883Z,0.60
2023-01-29T05:13:51.983Z,0.60
2023-01-29T05:16:26.720Z,0.60
2023-01-29T05:18:54.252Z,0.60
2023-01-29T05:21:23.206Z,0.70
2023-01-29T05:24:19.236Z,0.70
2023-01-29T05:27:08.141Z,0.70
2023-01-29T05:29:35.301Z,0.70
2023-01-29T05:32:02.505Z,0.80
2023-01-29T05:34:29.698Z,0.80
2023-01-29T05:36:56.656Z,0.80
2023-01-29T05:39:23.771Z,0.80
2023-01-29T05:41:50.809Z,0.80
2023-01-29T05:44:17.754Z,0.80
2023-01-29T05:46:45.239Z,0.80
2023-01-29T05:49:12.609Z,0.80
2023-01-29T05:51:39.596Z,0.80
2023-01-29T05:54:06.564Z,0.80
2023-01-29T05:56:33.505Z,0.80
2023-01-29T05:59:00.475Z,0.80
2023-01-29T06:01:27.490Z,0.80
2023-01-29T06:03:54.669Z,0.80
2023-01-29T06:06:21.657Z,0.90
2023-01-29T06:08:48.841Z,0.90
2023-01-29T06:11:18.273Z,0.90
2023-01-29T06:13:45.829Z,0.90
2023-01-29T06:16:14.217Z,0.90
2023-01-29T06:18:41.730Z,0.90
2023-01-29T06:21:12.170Z,0.90
2023-01-29T06:23:39.606Z,0.90
2023-01-29T06:26:10.761Z,0.90
2023-01-29T06:28:37.933Z,0.90
2023-01-29T06:33:53.091Z,0.90
2023-01-29T06:36:20.045Z,0.90
2023-01-29T06:38:47.443Z,1.00
2023-01-29T06:41:17.478Z,1.00
2023-01-29T06:43:45.461Z,1.00
2023-01-29T06:46:12.667Z,1.10
2023-01-29T06:48:39.644Z,1.10
2023-01-29T06:51:08.519Z,1.10
2023-01-29T06:53:36.629Z,1.10
2023-01-29T06:56:05.500Z,1.10
2023-01-29T06:58:33.017Z,1.20
2023-01-29T07:01:12.694Z,1.20
2023-01-29T07:03:44.431Z,1.20
2023-01-29T07:06:11.829Z,1.20
2023-01-29T07:08:39.885Z,1.20
2023-01-29T07:11:07.768Z,1.20
2023-01-29T07:13:35.147Z,1.20
2023-01-29T07:16:03.632Z,1.20
2023-01-29T07:18:31.639Z,1.20
2023-01-29T07:20:59.162Z,1.20
2023-01-29T07:23:26.176Z,1.20
2023-01-29T07:25:53.121Z,1.30
2023-01-29T07:28:23.311Z,1.30
2023-01-29T07:30:50.282Z,1.30
2023-01-29T07:33:17.245Z,1.30
2023-01-29T07:35:44.204Z,1.30
2023-01-29T07:38:11.681Z,1.30
2023-01-29T07:40:38.704Z,1.30
2023-01-29T07:43:08.182Z,1.30
2023-01-29T07:45:40.067Z,1.30
2023-01-29T07:48:10.395Z,1.30
2023-01-29T07:50:37.975Z,1.30
2023-01-29T07:53:05.066Z,1.30
2023-01-29T07:55:32.831Z,1.40
2023-01-29T07:58:02.118Z,1.40
2023-01-29T08:00:30.590Z,1.40
2023-01-29T08:03:11.273Z,1.40
2023-01-29T08:05:38.458Z,1.40
2023-01-29T08:08:09.930Z,1.40
2023-01-29T08:10:38.198Z,1.40
2023-01-29T08:13:06.474Z,1.50
2023-01-29T08:15:36.555Z,1.40
2023-01-29T08:18:05.143Z,1.50
2023-01-29T08:20:32.151Z,1.60
2023-01-29T08:23:08.879Z,1.60
2023-01-29T08:25:36.780Z,1.50
2023-01-29T08:28:05.039Z,1.60
2023-01-29T08:30:34.089Z,1.60
2023-01-29T08:33:01.287Z,1.60
2023-01-29T08:35:28.228Z,1.60
2023-01-29T08:37:56.440Z,1.70
2023-01-29T08:40:23.601Z,1.70
2023-01-29T08:42:50.595Z,1.80
2023-01-29T08:45:17.799Z,1.90
2023-01-29T08:47:48.959Z,2.00
2023-01-29T08:50:17.637Z,2.10
2023-01-29T08:52:45.484Z,2.10
2023-01-29T08:55:13.115Z,2.20
2023-01-29T08:57:40.216Z,2.20
2023-01-29T09:00:09.472Z,2.20
2023-01-29T09:02:36.876Z,2.20
2023-01-29T09:05:04.161Z,2.20
2023-01-29T09:07:31.342Z,2.20
2023-01-29T09:09:58.889Z,2.20
2023-01-29T09:12:26.288Z,2.20
2023-01-29T09:14:53.243Z,2.20
2023-01-29T09:17:20.276Z,2.20
2023-01-29T09:19:47.219Z,2.20
2023-01-29T09:22:14.320Z,2.20
2023-01-29T09:24:41.344Z,2.30
2023-01-29T09:27:10.104Z,2.30
2023-01-29T09:29:37.335Z,2.20
2023-01-29T09:32:04.984Z,2.20
2023-01-29T09:34:34.786Z,2.20
2023-01-29T09:37:01.912Z,2.10
2023-01-29T09:39:28.910Z,2.10
2023-01-29T09:41:58.617Z,2.10
2023-01-29T09:44:34.461Z,2.10
2023-01-29T09:47:05.268Z,2.10
2023-01-29T09:49:41.772Z,2.10
2023-01-29T09:52:25.997Z,2.20
2023-01-29T09:55:07.406Z,2.10
2023-01-29T09:57:40.226Z,2.20
2023-01-29T10:00:14.874Z,2.20
2023-01-29T10:03:00.609Z,2.30
2023-01-29T10:06:10.178Z,2.30
2023-01-29T10:09:08.794Z,2.50
2023-01-29T10:11:56.285Z,2.40
2023-01-29T10:14:53.218Z,2.40
2023-01-29T10:17:29.083Z,2.30
2023-01-29T10:20:31.943Z,2.40
2023-01-29T10:23:13.926Z,2.30
2023-01-29T10:25:42.328Z,2.30
2023-01-29T10:28:34.173Z,2.30
2023-01-29T10:31:09.566Z,2.40
2023-01-29T10:34:01.092Z,2.40
2023-01-29T10:36:38.751Z,2.50
2023-01-29T10:39:05.872Z,2.50
2023-01-29T10:41:54.027Z,2.50
2023-01-29T10:44:28.279Z,2.50
2023-01-29T10:47:13.077Z,2.50
2023-01-29T10:49:45.547Z,2.40
2023-01-29T10:53:00.472Z,2.50
2023-01-29T10:55:42.471Z,2.50
2023-01-29T10:58:27.324Z,2.50
2023-01-29T11:00:54.278Z,2.50
2023-01-29T11:03:30.570Z,2.60
2023-01-29T11:06:19.303Z,2.70
2023-01-29T11:09:16.668Z,2.70
2023-01-29T11:11:46.633Z,2.80
2023-01-29T11:14:42.810Z,2.80
2023-01-29T11:17:20.957Z,2.80
2023-01-29T11:19:51.439Z,2.70
2023-01-29T11:22:21.228Z,2.70
2023-01-29T11:25:10.377Z,2.60
2023-01-29T11:27:57.554Z,2.60
2023-01-29T11:30:38.862Z,2.60
2023-01-29T11:33:11.810Z,2.60
2023-01-29T11:35:38.907Z,2.60
2023-01-29T11:38:16.896Z,2.60
2023-01-29T11:40:44.756Z,2.50
2023-01-29T11:43:22.475Z,2.50
2023-01-29T11:45:53.773Z,2.50
2023-01-29T11:48:24.200Z,2.40
2023-01-29T11:50:56.927Z,2.40
2023-01-29T11:53:52.993Z,2.40
2023-01-29T11:56:43.146Z,2.30
2023-01-29T11:59:48.618Z,2.30
2023-01-29T12:02:31.698Z,2.30
2023-01-29T12:05:03.278Z,2.30
2023-01-29T12:07:32.069Z,2.30
2023-01-29T12:10:00.212Z,2.30
2023-01-29T12:12:31.352Z,2.30
2023-01-29T12:15:25.142Z,2.30
2023-01-29T12:17:59.072Z,2.30
2023-01-29T12:20:41.419Z,2.30
2023-01-29T12:23:36.597Z,2.40
2023-01-29T12:26:24.348Z,2.30
2023-01-29T12:28:55.611Z,2.30
2023-01-29T12:31:43.773Z,2.30
2023-01-29T12:34:27.262Z,2.30
2023-01-29T12:37:03.314Z,2.30
2023-01-29T12:39:30.506Z,2.30
2023-01-29T12:42:18.635Z,2.20
2023-01-29T12:45:01.700Z,2.20
2023-01-29T12:47:34.538Z,2.20
2023-01-29T12:50:13.345Z,2.20
2023-01-29T12:52:45.224Z,2.20
2023-01-29T12:55:24.348Z,2.30
2023-01-29T12:58:16.339Z,2.30
2023-01-29T13:00:52.987Z,2.30
2023-01-29T13:04:06.674Z,2.30
2023-01-29T13:06:41.688Z,2.30
2023-01-29T13:09:30.182Z,2.30
2023-01-29T13:12:02.817Z,2.30
2023-01-29T13:17:23.069Z,2.40
2023-01-29T13:19:56.613Z,2.30
2023-01-29T13:22:34.690Z,2.40
2023-01-29T13:25:05.489Z,2.40
2023-01-29T13:27:34.998Z,2.40
2023-01-29T13:30:02.519Z,2.40
2023-01-29T13:32:31.865Z,2.40
2023-01-29T13:35:05.091Z,2.50
2023-01-29T13:37:39.336Z,2.50
2023-01-29T13:40:08.090Z,2.50
2023-01-29T13:42:44.198Z,2.50
2023-01-29T13:45:21.676Z,2.50
2023-01-29T13:47:50.089Z,2.50
2023-01-29T13:50:35.556Z,2.50
2023-01-29T13:53:05.181Z,2.50
2023-01-29T13:55:42.871Z,2.50
2023-01-29T13:58:37.862Z,2.50
2023-01-29T14:01:05.230Z,2.40
2023-01-29T14:03:45.048Z,2.40
2023-01-29T14:06:42.570Z,2.30
2023-01-29T14:09:34.390Z,2.30
2023-01-29T14:12:01.689Z,2.30
2023-01-29T14:14:37.168Z,2.30
2023-01-29T14:17:04.287Z,2.30
2023-01-29T14:19:31.344Z,2.30
2023-01-29T14:21:59.290Z,2.30
2023-01-29T14:24:31.040Z,2.30
2023-01-29T14:26:58.335Z,2.30
2023-01-29T14:29:41.677Z,2.30
2023-01-29T14:32:21.292Z,2.20
2023-01-29T14:34:50.963Z,2.30
2023-01-29T14:37:20.797Z,2.20
2023-01-29T14:39:53.593Z,2.20
2023-01-29T14:42:23.568Z,2.20
2023-01-29T14:45:08.383Z,2.20
2023-01-29T14:47:35.317Z,2.20
2023-01-29T14:50:23.793Z,2.20
2023-01-29T14:52:54.147Z,2.30
2023-01-29T14:55:35.857Z,2.30
2023-01-29T14:58:04.570Z,2.30
2023-01-29T15:00:36.861Z,2.30
2023-01-29T15:03:12.281Z,2.30
2023-01-29T15:05:41.118Z,2.30
2023-01-29T15:08:30.202Z,2.30
2023-01-29T15:11:19.239Z,2.30
2023-01-29T15:13:57.127Z,2.30
2023-01-29T15:16:42.328Z,2.30
2023-01-29T15:19:20.076Z,2.30
2023-01-29T15:22:13.430Z,2.20
2023-01-29T15:24:42.190Z,2.20
2023-01-29T15:27:20.391Z,2.20
2023-01-29T15:29:54.599Z,2.20
2023-01-29T15:32:41.832Z,2.20
2023-01-29T15:35:28.456Z,2.20
2023-01-29T15:38:02.087Z,2.20
2023-01-29T15:40:29.538Z,2.20
2023-01-29T15:42:56.494Z,2.20
2023-01-29T15:45:33.505Z,2.10
2023-01-29T15:48:08.551Z,2.20
2023-01-29T15:50:40.147Z,2.10
2023-01-29T15:53:10.186Z,2.10
2023-01-29T15:55:37.281Z,2.10
2023-01-29T15:58:04.610Z,2.10
2023-01-29T16:00:31.679Z,2.20
2023-01-29T16:03:01.561Z,2.10
2023-01-29T16:05:33.229Z,2.20
2023-01-29T16:08:00.900Z,2.10
2023-01-29T16:10:31.288Z,2.10
2023-01-29T16:12:59.299Z,2.10
2023-01-29T16:15:35.829Z,2.10
2023-01-29T16:18:21.544Z,2.10
2023-01-29T16:20:53.272Z,2.10
2023-01-29T16:23:44.871Z,2.10
2023-01-29T16:26:24.166Z,2.10
2023-01-29T16:28:51.606Z,2.20
2023-01-29T16:31:27.266Z,2.20
2023-01-29T16:33:56.767Z,2.20
2023-01-29T16:36:26.664Z,2.20
2023-01-29T16:38:55.644Z,2.20
2023-01-29T16:41:22.591Z,2.20
2023-01-29T16:44:03.914Z,2.20
2023-01-29T16:46:44.983Z,2.20
2023-01-29T16:49:27.146Z,2.20
2023-01-29T16:51:56.450Z,2.30
2023-01-29T16:54:27.840Z,2.30
2023-01-29T16:57:00.515Z,2.30
2023-01-29T16:59:37.790Z,2.30
2023-01-29T17:02:11.310Z,2.30
2023-01-29T17:04:41.867Z,2.30
2023-01-29T17:07:21.322Z,2.30
2023-01-29T17:09:54.353Z,2.30
2023-01-29T17:12:25.508Z,2.40
2023-01-29T17:14:58.245Z,2.40
2023-01-29T17:17:34.437Z,2.30
2023-01-29T17:20:15.840Z,2.30
2023-01-29T17:22:43.214Z,2.30
2023-01-29T17:25:14.163Z,2.40
2023-01-29T17:27:42.615Z,2.40
2023-01-29T17:30:17.205Z,2.30
2023-01-29T17:32:47.397Z,2.40
2023-01-29T17:35:16.466Z,2.40
2023-01-29T17:37:44.505Z,2.30
2023-01-29T17:40:33.053Z,2.30
2023-01-29T17:43:00.108Z,2.40
2023-01-29T17:45:27.267Z,2.40
2023-01-29T17:47:54.285Z,2.40
2023-01-29T17:50:27.668Z,2.40
2023-01-29T17:52:54.926Z,2.40
2023-01-29T17:55:22.118Z,2.30
2023-01-29T17:57:49.114Z,2.40
2023-01-29T18:00:22.124Z,2.40
2023-01-29T18:02:49.330Z,2.30
2023-01-29T18:05:17.742Z,2.30
2023-01-29T18:07:47.167Z,2.40
2023-01-29T18:10:19.970Z,2.40
2023-01-29T18:12:47.099Z,2.40
2023-01-29T18:15:14.548Z,2.40
2023-01-29T18:17:42.390Z,2.40
2023-01-29T18:20:27.744Z,2.30
2023-01-29T18:22:54.768Z,2.40
2023-01-29T18:25:23.574Z,2.40
2023-01-29T18:27:51.637Z,2.40
2023-01-29T18:30:18.779Z,2.40
2023-01-29T18:32:47.563Z,2.40
2023-01-29T18:35:14.864Z,2.40
2023-01-29T18:37:41.920Z,2.40
2023-01-29T18:40:17.248Z,2.40
2023-01-29T18:42:45.549Z,2.40
2023-01-29T18:45:13.766Z,2.40
2023-01-29T18:47:40.966Z,2.40
2023-01-29T18:50:08.745Z,2.40
2023-01-29T18:52:35.750Z,2.40
2023-01-29T18:55:02.892Z,2.40
2023-01-29T18:58:26.096Z,2.40
2023-01-29T19:00:17.367Z,2.40
2023-01-29T19:02:45.895Z,2.40
2023-01-29T19:05:12.980Z,2.40
2023-01-29T19:07:39.967Z,2.40
2023-01-29T19:10:09.416Z,2.40
2023-01-29T19:12:36.636Z,2.40
2023-01-29T19:15:03.728Z,2.40
2023-01-29T19:17:30.759Z,2.40
2023-01-29T19:20:02.140Z,2.40
2023-01-29T19:22:29.655Z,2.40
2023-01-29T19:24:56.633Z,2.40
2023-01-29T19:27:25.997Z,2.40
2023-01-29T19:29:52.986Z,2.40
2023-01-29T19:32:19.920Z,2.40
2023-01-29T19:34:46.854Z,2.40
2023-01-29T19:37:14.546Z,2.50
2023-01-29T19:39:41.485Z,2.50
2023-01-29T19:42:08.436Z,2.40
2023-01-29T19:44:35.474Z,2.40
2023-01-29T19:47:02.565Z,2.40
2023-01-29T19:49:29.689Z,2.40
2023-01-29T19:51:59.003Z,2.50
2023-01-29T19:54:27.865Z,2.40
2023-01-29T19:56:55.311Z,2.40
2023-01-29T19:59:22.521Z,2.40
2023-01-29T20:01:49.500Z,2.40
2023-01-29T20:04:16.620Z,2.50
2023-01-29T20:06:43.744Z,2.40
2023-01-29T20:09:10.668Z,2.50
2023-01-29T20:11:37.753Z,2.40
2023-01-29T20:14:04.793Z,2.40
2023-01-29T20:16:31.916Z,2.50
2023-01-29T20:19:13.679Z,2.50
2023-01-29T20:21:45.024Z,2.40
2023-01-29T20:24:13.439Z,2.50
2023-01-29T20:26:40.818Z,2.50
2023-01-29T20:29:08.279Z,2.50
2023-01-29T20:31:35.330Z,2.50
2023-01-29T20:34:02.399Z,2.50
2023-01-29T20:36:29.360Z,2.50
2023-01-29T20:38:56.423Z,2.50
2023-01-29T20:41:23.430Z,2.50
2023-01-29T20:43:51.252Z,2.50
2023-01-29T20:46:19.991Z,2.50
2023-01-29T20:48:49.614Z,2.50
2023-01-29T20:51:18.461Z,2.50
2023-01-29T20:53:46.807Z,2.50
2023-01-29T20:56:16.255Z,2.50
2023-01-29T20:58:43.565Z,2.50
2023-01-29T21:01:19.812Z,2.60
2023-01-29T21:03:47.781Z,2.60
2023-01-29T21:06:15.904Z,2.60
2023-01-29T21:08:42.816Z,2.50
2023-01-29T21:11:10.668Z,2.60
2023-01-29T21:13:38.491Z,2.50
2023-01-29T21:16:06.258Z,2.60
2023-01-29T21:18:33.394Z,2.60
2023-01-29T21:21:00.322Z,2.60
2023-01-29T21:23:27.603Z,2.60
2023-01-29T21:25:55.036Z,2.60
2023-01-29T21:28:22.516Z,2.60
2023-01-29T21:30:49.538Z,2.70
2023-01-29T21:33:16.723Z,2.60
2023-01-29T21:35:43.690Z,2.70
2023-01-29T21:38:10.728Z,2.70
2023-01-29T21:40:37.846Z,2.70
2023-01-29T21:43:11.955Z,2.70
2023-01-29T21:45:40.018Z,2.70
2023-01-29T21:48:07.400Z,2.70
2023-01-29T21:50:34.532Z,2.70
2023-01-29T21:53:01.990Z,2.70
2023-01-29T21:55:29.115Z,2.80
2023-01-29T21:57:56.220Z,2.80
2023-01-29T22:00:23.125Z,2.80
2023-01-29T22:02:51.411Z,2.80
2023-01-29T22:05:20.213Z,2.80
2023-01-29T22:07:49.047Z,2.80
2023-01-29T22:10:18.310Z,2.80
2023-01-29T22:12:45.715Z,2.80
2023-01-29T22:15:13.854Z,2.80
2023-01-29T22:17:42.820Z,2.80
2023-01-29T22:20:14.529Z,2.80
2023-01-29T22:22:44.231Z,2.80
2023-01-29T22:25:11.506Z,2.80
2023-01-29T22:27:38.566Z,2.80
2023-01-29T22:30:06.463Z,2.80
2023-01-29T22:32:33.534Z,2.80
2023-01-29T22:35:00.659Z,2.80
2023-01-29T22:37:27.883Z,2.80
2023-01-29T22:39:54.850Z,2.80
2023-01-29T22:42:21.919Z,2.80
2023-01-29T22:44:48.986Z,2.80
2023-01-29T22:47:16.481Z,2.80
2023-01-29T22:49:45.724Z,2.80
2023-01-29T22:52:12.804Z,2.80
2023-01-29T22:54:41.734Z,2.80
2023-01-29T22:57:14.036Z,2.90
2023-01-29T22:59:41.851Z,2.90
2023-01-29T23:02:09.762Z,2.90
2023-01-29T23:04:38.254Z,2.90
2023-01-29T23:07:05.316Z,2.90
2023-01-29T23:09:32.513Z,2.90
2023-01-29T23:11:59.567Z,3.00
2023-01-29T23:14:26.593Z,3.00
2023-01-29T23:16:53.704Z,3.00
2023-01-29T23:19:20.835Z,3.00
2023-01-29T23:21:47.847Z,3.00
2023-01-29T23:24:15.041Z,3.00
2023-01-29T23:27:00.467Z,3.00
2023-01-29T23:29:27.496Z,3.00
2023-01-29T23:31:54.579Z,3.00
2023-01-29T23:34:21.652Z,3.00
2023-01-29T23:36:48.625Z,3.00
2023-01-29T23:39:16.510Z,3.10
2023-01-29T23:41:44.271Z,3.10
2023-01-29T23:44:11.315Z,3.10
2023-01-29T23:46:38.484Z,3.10
2023-01-29T23:49:05.562Z,3.10
2023-01-29T23:51:33.146Z,3.10
2023-01-29T23:54:00.241Z,3.20
2023-01-29T23:56:27.216Z,3.10
2023-01-29T23:58:55.662Z,3.10
